createdAt,value
2017-08-21T00:04:44.000Z,61.6
2017-08-21T00:21:30.000Z,61.6
2017-08-21T00:38:18.000Z,61.6
2017-08-21T00:55:04.000Z,61.6
2017-08-21T01:11:50.000Z,61.6
2017-08-21T01:28:36.000Z,61.6
2017-08-21T01:45:23.000Z,61.6
2017-08-21T02:02:09.000Z,61.6
2017-08-21T02:18:55.000Z,61.6
2017-08-21T02:35:41.000Z,61.6
2017-08-21T02:52:28.000Z,61.6
2017-08-21T03:09:14.000Z,61.6
2017-08-21T03:26:00.000Z,61.2
2017-08-21T03:42:47.000Z,60.8
2017-08-21T03:59:32.000Z,60.8
2017-08-21T04:16:18.000Z,60.8
2017-08-21T04:33:04.000Z,60.8
2017-08-21T04:49:50.000Z,60.8
2017-08-21T05:06:36.000Z,60.8
2017-08-21T05:23:22.000Z,60.8
2017-08-21T05:40:07.000Z,60.4
2017-08-21T05:56:54.000Z,60.8
2017-08-21T06:13:41.000Z,60.4
2017-08-21T06:30:27.000Z,60
2017-08-21T06:47:14.000Z,60
2017-08-21T07:04:00.000Z,60
2017-08-21T07:20:48.000Z,60
2017-08-21T07:37:35.000Z,60
2017-08-21T07:54:21.000Z,59.6
2017-08-21T08:11:09.000Z,59.6
2017-08-21T08:27:56.000Z,60
2017-08-21T08:44:43.000Z,59.6
2017-08-21T09:01:31.000Z,60
2017-08-21T09:18:19.000Z,60
2017-08-21T09:35:07.000Z,59.6
2017-08-21T09:51:54.000Z,59.6
2017-08-21T10:08:43.000Z,59.6
2017-08-21T10:25:31.000Z,59.6
2017-08-21T10:42:20.000Z,58.8
2017-08-21T10:59:08.000Z,58.8
2017-08-21T11:15:57.000Z,58.8
2017-08-21T11:32:47.000Z,57.6
2017-08-21T11:49:36.000Z,56.8
2017-08-21T12:06:24.000Z,56.4
2017-08-21T12:23:14.000Z,54.8
2017-08-21T12:40:02.000Z,54.8
2017-08-21T12:56:50.000Z,55.6
2017-08-21T13:13:39.000Z,54.8
2017-08-21T13:30:28.000Z,55.6
2017-08-21T13:47:17.000Z,55.6
2017-08-21T14:04:07.000Z,54.8
2017-08-21T14:20:56.000Z,54.4
2017-08-21T14:37:45.000Z,54
2017-08-21T14:54:34.000Z,54
2017-08-21T15:11:23.000Z,54.4
2017-08-21T15:28:12.000Z,56
2017-08-21T15:45:00.000Z,56.4
2017-08-21T16:01:50.000Z,56.4
2017-08-21T16:18:38.000Z,58
2017-08-21T16:32:05.000Z,60
2017-08-21T16:47:13.000Z,62
2017-08-21T17:04:02.000Z,62.4
2017-08-21T17:20:51.000Z,62.8
2017-08-21T17:37:41.000Z,63.2
2017-08-21T17:49:27.000Z,61.2
2017-08-21T18:02:53.000Z,63.2
2017-08-21T18:16:20.000Z,65.2
2017-08-21T18:33:09.000Z,66
2017-08-21T18:49:57.000Z,67.6
2017-08-21T19:06:46.000Z,68
2017-08-21T19:23:34.000Z,67.6
2017-08-21T19:40:22.000Z,68
2017-08-21T19:57:11.000Z,68.4
2017-08-21T20:14:00.000Z,68.8
2017-08-21T20:30:47.000Z,68.8
2017-08-21T20:47:35.000Z,68.4
2017-08-21T21:04:23.000Z,68.8
2017-08-21T21:21:10.000Z,68.8
2017-08-21T21:37:57.000Z,68
2017-08-21T21:54:44.000Z,68
2017-08-21T22:11:32.000Z,68
2017-08-21T22:28:19.000Z,68
2017-08-21T22:38:23.000Z,67.2
2017-08-21T22:55:10.000Z,68
2017-08-21T23:11:57.000Z,68
2017-08-21T23:28:43.000Z,68
2017-08-21T23:45:30.000Z,67.2
